Main page
METAR-TAF:

METAR-TAF

Airports :

Valladolid Airport

Valladolid, Spain

latitude: 41-43N, longitude: 004-51W, elevation: 849 m

Current weather observation

The report was made 20 minutes ago, at 23:00 UTC
Wind 4 kt from the West/Southwest
Temperature 6°C
Humidity 93%
Pressure 1025 hPa
Visibility 10 km or more
no clouds below 1500 m and no cumulonimbus

METAR: LEVD 282300Z AUTO 24004KT CAVOK 06/05 Q1025

Time: 00:20 (23:20 UTC)

Forecast

The report was made 3 hours and 20 minutes ago, at 20:00 UTC
Forecast valid from 28 at 21 UTC to 29 at 21 UTC
Wind 4 kt from variable directions
Visibility 10 km or more
Scattered clouds at a height of 3000 ft
Probability 40% :
Temporary
from 29 at 02 UTC to 29 at 11 UTC
Visibility: 0100 m
at a height of 100 ft
fog
Probability 40% :
Temporary
from 29 at 11 UTC to 29 at 13 UTC
Overcast at a height of 700 ft

TAF: LEVD 282000Z 2821/2921 VRB04KT 9999 SCT030 TX16/2916Z TN04/2906Z PROB40 TEMPO 2902/2911 0100 FG VV001 PROB40 TEMPO 2911/2913 OVC007

Weather observations and forecasts of more than 4000 airports (METAR and TAF reports).

The available stations are represented by yellow and red dots on the map.

Hover mouse over dot to see the name of the station.

Then click to see weather observations and forecasts.

To change the map : click on the green buttons with a black cross to zoom in, on the green button with a dash to zoom out, or on the green arrows for adjacent maps.


METAR-TAF: